Parker, AZ (85344)

12:56 PM MST on September 18, 2014 (GMT -0700)
RAWS AHAKHAV PRESERVE AZ US | Change Station
CLOSE
Current Station
Personal Weather Station
Location: Earp, CA
Elevation: 362 ft
Nearby Weather Stations

Elev 362 ft 34.13 °N, 114.32 °W | Updated 30 minutes ago

Clear
Clear
99 °F
Feels Like 104 °F
N
4
Wind Variable Wind from South
Gusts 9.0 mph

Today
High -- | Low -- °F
--% Chance of Precip.
Yesterday
High -- | Low -- °F
Precip. -- in
6:22 AM 6:39 PM
Waning Crescent, 25% visible
Pressure 29.69 in
Visibility 10.0 miles
Clouds Clear
Heat Index 104 °F
Dew Point 66 °F
Humidity 35%
Rainfall 0.00 in
Snow Depth 1 in , 0 in , 0 in
UV 9 out of 12
Pollen 8.70 out of 12
Air Quality Not available.
Flu Activity Not available.
METAR KBLH 181852Z AUTO 16011KT 10SM CLR 36/21 A2971 RMK AO2 SLP053 T03610206

More Conditions Fewer Conditions

Pressure 29.69 in
Visibility 10.0 miles
Clouds Clear
Heat Index 104 °F
Dew Point 66 °F
Humidity 35%
Rainfall 0.00 in
Snow Depth 1 in , 0 in , 0 in
UV 9 out of 12
Pollen 8.70 out of 12
Air Quality Not available.
Flu Activity Not available.
METAR KBLH 181852Z AUTO 16011KT 10SM CLR 36/21 A2971 RMK AO2 SLP053 T03610206

More Conditions Fewer Conditions

10-Day Weather Forecast

Almanac

Astronomy

Sep. 18, 2014 Rise Set
Actual Time 6:22 AM MST 6:39 PM MST
Civil Twilight 5:57 AM MST 7:04 PM MST
Nautical Twilight 5:27 AM MST 7:33 PM MST
Astronomical Twilight 4:58 AM MST 8:03 PM MST
Moon 1:28 AM MST 3:23 PM MST
Length of Visible Light 13h 07m
Length of Day
12h 16m
Tomorrow will be 2m 7s shorter.
Waning Crescent, 25% of the Moon is Illuminated
Today
Waning Crescent
Sep 24
New
Oct 1
First Quarter
Oct 8
Full
Oct 15
Last Quarter

Today's Extremes

State Highs State Lows

Community

WunderPhotos

Upload Photos

1,754,421 photos uploaded!

WunderBlogs® & News

By Dr. Jeff Masters
Director of Meteorology, Weather Underground
By Kari Strenfel
Meteorologist, Weather Underground
By Christopher C. Burt
Weather Historian, Weather Underground
September 18, 2014
September 18, 2014
September 18, 2014

Nearby

Snow Depth

Station Depth Elevation
Workman Creek 1 in 6900 ft
Snowslide Canyon 0 in 9730 ft
Maverick Fork 0 in 9200 ft
Beaver Head 1 in 7990 ft
Promontory 0 in 7930 ft

Earthquake Activity

City Distance Mag. Time & Date
No recent earthquake activity has been reported nearby.
Minimum magnitude displayed is 2.5.

Coastal Water Temperatures

Place Temperature
No Stations Reporting

Nearby Weather Stations